Time;durP1;ratioP1;P1;durP2;ratioP2;P2;SDS_P1;SDS_P2;PMS_P1;PMS_P2;Temp;Humidity;BMP_temperature;BMP_pressure;BME280_temperature;BME280_humidity;BME280_pressure;Samples;Min_cycle;Max_cycle;Signal;HPM_P1;HPM_P2
2021/09/26 00:01:21;;;;;;;;;21.00;19.75;;;;;20.12;69.16;101090.28;4923667;28;45407;-55
2021/09/26 00:03:47;;;;;;;;;25.00;20.00;;;;;20.11;69.31;101092.13;4924346;28;45234;-56
2021/09/26 00:06:12;;;;;;;;;24.25;20.00;;;;;20.10;69.53;101092.28;4923922;28;46182;-57
2021/09/26 00:08:38;;;;;;;;;23.25;21.00;;;;;20.08;69.42;101087.06;4923907;28;45177;-57
2021/09/26 00:11:06;;;;;;;;;25.50;24.25;;;;;20.03;69.72;101081.31;4924102;28;45512;-55
2021/09/26 00:13:37;;;;;;;;;21.50;21.50;;;;;20.01;69.60;101086.78;4924090;28;45249;-56
2021/09/26 00:16:05;;;;;;;;;23.25;23.25;;;;;19.99;69.55;101085.25;4923710;28;46181;-55
2021/09/26 00:18:30;;;;;;;;;24.75;24.00;;;;;19.99;69.58;101085.25;4923899;28;45475;-55
2021/09/26 00:20:56;;;;;;;;;24.50;22.25;;;;;19.98;69.52;101094.25;4923608;28;45259;-55
2021/09/26 00:23:22;;;;;;;;;24.50;23.25;;;;;19.96;69.78;101096.22;4923891;28;45296;-55
2021/09/26 00:25:48;;;;;;;;;23.25;21.50;;;;;19.93;69.52;101108.06;4923636;28;45475;-55
2021/09/26 00:28:14;;;;;;;;;25.25;23.00;;;;;19.93;69.31;101101.88;4923970;28;45341;-56
2021/09/26 00:30:40;;;;;;;;;25.75;20.75;;;;;19.91;69.72;101110.03;4923744;28;45288;-56
2021/09/26 00:33:05;;;;;;;;;25.00;23.00;;;;;19.90;69.79;101108.31;4923911;28;45434;-56
2021/09/26 00:35:31;;;;;;;;;18.25;17.50;;;;;19.88;69.68;101107.63;4923551;28;45294;-56
2021/09/26 00:37:57;;;;;;;;;27.50;23.00;;;;;19.89;69.77;101111.16;4923092;28;45420;-56
2021/09/26 00:40:22;;;;;;;;;17.75;17.50;;;;;19.88;69.72;101107.63;4923325;28;45284;-56
2021/09/26 00:42:48;;;;;;;;;22.75;20.75;;;;;19.88;69.70;101112.97;4923545;28;45231;-56
2021/09/26 00:45:13;;;;;;;;;24.50;22.25;;;;;19.89;69.54;101111.16;4923316;28;45832;-56
2021/09/26 00:47:39;;;;;;;;;25.00;23.25;;;;;19.90;69.33;101111.00;4923471;28;45359;-57
2021/09/26 00:50:06;;;;;;;;;25.00;22.25;;;;;19.90;69.28;101128.88;4923435;28;45301;-56
2021/09/26 00:52:32;;;;;;;;;23.25;20.75;;;;;19.90;69.51;101136.91;4923644;28;45506;-54
2021/09/26 00:54:58;;;;;;;;;23.50;22.75;;;;;19.88;69.74;101134.38;4922994;28;46277;-56
2021/09/26 00:57:23;;;;;;;;;20.50;18.75;;;;;19.89;69.17;101132.53;4923327;28;45288;-56
2021/09/26 00:59:49;;;;;;;;;25.50;20.75;;;;;19.86;69.69;101127.50;4923204;28;45509;-55
2021/09/26 01:02:14;;;;;;;;;22.75;18.50;;;;;19.84;69.26;101132.13;4922255;28;45328;-55
2021/09/26 01:04:41;;;;;;;;;21.25;19.25;;;;;19.84;69.33;101122.28;4923215;28;45254;-55
2021/09/26 01:07:19;;;;;;;;;21.00;19.00;;;;;19.81;69.82;101127.91;4923624;28;45232;-55
2021/09/26 01:10:16;;;;;;;;;18.25;18.25;;;;;19.80;69.54;101124.38;4923021;28;45309;-56
2021/09/26 01:12:52;;;;;;;;;22.00;20.75;;;;;19.81;69.28;101122.56;4894054;28;45515;-56
2021/09/26 01:16:03;;;;;;;;;21.00;19.50;;;;;19.84;69.61;101121.44;4923125;28;46262;-55
2021/09/26 01:18:55;;;;;;;;;24.00;18.00;;;;;19.85;69.25;101123.97;4922932;28;45368;-55
2021/09/26 01:21:37;;;;;;;;;18.75;18.00;;;;;19.85;69.55;101125.81;4922993;28;45262;-54
2021/09/26 01:24:17;;;;;;;;;24.75;17.00;;;;;19.84;69.54;101127.63;4922799;28;45344;-55
2021/09/26 01:27:01;;;;;;;;;19.25;17.00;;;;;19.84;69.41;101129.47;4923031;28;45475;-55
2021/09/26 01:29:52;;;;;;;;;27.00;22.75;;;;;19.84;69.46;101132.13;4922703;28;45192;-54
2021/09/26 01:32:20;;;;;;;;;23.25;20.50;;;;;19.82;69.93;101126.06;4922979;28;45351;-56
2021/09/26 01:34:50;;;;;;;;;27.00;23.00;;;;;19.82;69.59;101129.56;4923189;28;45352;-51
2021/09/26 01:37:40;;;;;;;;;21.50;20.00;;;;;19.82;69.70;101136.75;4922689;28;45401;-54
2021/09/26 01:40:41;;;;;;;;;25.50;20.00;;;;;19.78;69.78;101133.53;4922194;28;45160;-54
2021/09/26 01:43:10;;;;;;;;;24.75;19.50;;;;;19.79;70.04;101137.91;4922768;28;45271;-58
2021/09/26 01:45:41;;;;;;;;;20.75;19.25;;;;;19.79;69.90;101145.91;4922557;28;45176;-55
2021/09/26 01:48:11;;;;;;;;;23.25;19.75;;;;;19.77;70.12;101137.19;4922475;28;46035;-55
2021/09/26 01:50:39;;;;;;;;;25.00;21.50;;;;;19.76;69.65;101140.88;4922477;28;45336;-55
2021/09/26 01:53:06;;;;;;;;;23.50;20.25;;;;;19.75;70.10;101133.84;4922271;28;45355;-56
2021/09/26 01:55:33;;;;;;;;;18.75;18.25;;;;;19.75;69.87;101136.50;4922579;28;45312;-56
2021/09/26 01:58:01;;;;;;;;;19.50;18.00;;;;;19.73;69.79;101119.75;4922355;28;46170;-53
2021/09/26 02:00:27;;;;;;;;;19.50;17.00;;;;;19.72;69.69;101118.91;4922420;28;45178;-55
2021/09/26 02:02:54;;;;;;;;;20.00;17.50;;;;;19.71;69.64;101125.22;4922541;28;45488;-54
2021/09/26 02:05:20;;;;;;;;;15.75;14.50;;;;;19.70;69.57;101125.38;4922763;28;45516;-56
2021/09/26 02:07:49;;;;;;;;;16.50;14.50;;;;;19.68;69.72;101127.34;4920886;28;46264;-55
2021/09/26 02:10:19;;;;;;;;;16.75;15.75;;;;;19.69;69.53;101132.56;4922473;28;45304;-55
2021/09/26 02:12:44;;;;;;;;;15.00;14.50;;;;;19.71;69.16;101132.41;4923654;28;45471;-56
2021/09/26 02:15:22;;;;;;;;;16.25;12.75;;;;;19.74;69.46;101126.78;4925743;28;45474;-55
2021/09/26 02:17:49;;;;;;;;;16.25;14.75;;;;;19.76;69.44;101123.00;4925693;28;45379;-54
2021/09/26 02:20:17;;;;;;;;;17.25;16.25;;;;;19.78;69.50;101120.16;4925468;28;45268;-54
2021/09/26 02:22:44;;;;;;;;;17.00;15.25;;;;;19.79;69.54;101120.03;4925490;28;45220;-56
2021/09/26 02:25:12;;;;;;;;;13.25;13.00;;;;;19.84;69.20;101121.44;4925597;28;45553;-55
2021/09/26 02:27:37;;;;;;;;;18.00;16.25;;;;;19.86;69.55;101124.81;4925446;28;46850;-55
2021/09/26 02:30:05;;;;;;;;;16.25;14.00;;;;;19.87;69.03;101131.84;4925282;28;45479;-53
2021/09/26 02:32:32;;;;;;;;;15.75;13.25;;;;;19.86;69.58;101124.81;4925697;28;45246;-55
2021/09/26 02:34:58;;;;;;;;;15.50;15.50;;;;;19.87;69.52;101124.66;4925544;28;45381;-55
2021/09/26 02:37:24;;;;;;;;;14.50;14.00;;;;;19.89;69.27;101122.69;4925261;28;45217;-53
2021/09/26 02:39:50;;;;;;;;;15.25;13.00;;;;;19.90;68.84;101126.19;4925096;28;45316;-56
2021/09/26 02:42:49;;;;;;;;;13.75;13.25;;;;;19.89;69.02;101125.34;4925492;28;45312;-54
2021/09/26 02:45:36;;;;;;;;;15.00;11.00;;;;;19.88;68.93;101145.06;4925142;28;45323;-54
2021/09/26 02:48:12;;;;;;;;;15.50;14.00;;;;;19.88;69.30;101136.19;4925013;28;46150;-55
2021/09/26 02:50:43;;;;;;;;;17.00;12.25;;;;;19.89;69.44;101136.06;4925284;28;45252;-56
2021/09/26 02:53:10;;;;;;;;;11.00;11.00;;;;;19.90;69.54;101131.56;4925069;28;45401;-56
2021/09/26 02:55:38;;;;;;;;;11.50;11.25;;;;;19.92;68.84;101132.28;4925285;28;45246;-54
2021/09/26 02:58:04;;;;;;;;;12.75;11.00;;;;;19.93;69.25;101125.94;4924717;28;45379;-56
2021/09/26 03:00:36;;;;;;;;;14.75;11.75;;;;;19.93;68.74;101126.78;4924751;28;45332;-55
2021/09/26 03:03:08;;;;;;;;;12.25;11.00;;;;;19.94;69.01;101123.13;4924966;28;45300;-55
2021/09/26 03:05:33;;;;;;;;;13.00;13.00;;;;;19.94;69.18;101112.41;4925137;28;45317;-53
2021/09/26 03:07:59;;;;;;;;;14.75;14.00;;;;;19.94;68.78;101112.41;4924507;28;46084;-55
2021/09/26 03:10:24;;;;;;;;;13.00;12.00;;;;;19.94;68.80;101095.53;4925251;28;45475;-55
2021/09/26 03:12:50;;;;;;;;;11.00;11.00;;;;;19.90;68.80;101088.78;4925119;28;45290;-54
2021/09/26 03:15:15;;;;;;;;;12.50;10.00;;;;;19.89;68.79;101101.28;4924971;28;45518;-56
2021/09/26 03:17:41;;;;;;;;;11.00;11.00;;;;;19.87;69.00;101091.75;4924817;28;45948;-54
2021/09/26 03:20:07;;;;;;;;;26.25;24.00;;;;;19.84;69.20;101087.53;4924669;28;45366;-55
2021/09/26 03:22:32;;;;;;;;;13.75;13.75;;;;;19.83;69.03;101088.53;4924691;28;45312;-55
2021/09/26 03:24:58;;;;;;;;;10.75;9.75;;;;;19.80;69.44;101070.06;4923965;28;45625;-54
2021/09/26 03:27:23;;;;;;;;;17.25;12.50;;;;;19.80;68.87;101072.75;4924672;28;45145;-53
2021/09/26 03:29:51;;;;;;;;;13.75;12.50;;;;;19.80;69.27;101068.25;4924508;28;45500;-56
2021/09/26 03:32:17;;;;;;;;;13.00;12.25;;;;;19.79;69.33;101058.53;4924745;28;45353;-54
2021/09/26 03:34:43;;;;;;;;;8.75;8.50;;;;;19.76;69.62;101061.50;4924855;28;45288;-54
2021/09/26 03:37:08;;;;;;;;;10.50;9.25;;;;;19.73;69.36;101060.94;4924330;28;45546;-55
2021/09/26 03:39:35;;;;;;;;;14.75;13.00;;;;;19.68;69.81;101060.53;4907115;28;45251;-52
2021/09/26 03:42:00;;;;;;;;;13.00;12.50;;;;;19.67;69.63;101075.72;4924564;28;45269;-52
2021/09/26 03:44:26;;;;;;;;;13.75;13.25;;;;;19.69;70.01;101073.75;4924368;28;45469;-55
2021/09/26 03:46:52;;;;;;;;;12.25;12.25;;;;;19.67;69.64;101067.72;4924292;28;45228;-53
2021/09/26 03:49:18;;;;;;;;;18.50;15.00;;;;;19.68;69.52;101071.22;4924391;28;45336;-51
2021/09/26 03:51:45;;;;;;;;;13.75;11.25;;;;;19.68;70.02;101080.09;4924274;28;45319;-54
2021/09/26 03:54:10;;;;;;;;;16.00;15.00;;;;;19.70;69.68;101082.63;4924328;28;45319;-52
2021/09/26 03:56:36;;;;;;;;;16.00;16.00;;;;;19.69;69.82;101073.75;4924016;28;46627;-55
2021/09/26 03:59:01;;;;;;;;;16.25;14.75;;;;;19.70;69.98;101080.78;4924283;28;45373;-51
2021/09/26 04:01:27;;;;;;;;;17.75;15.50;;;;;19.71;70.14;101076.28;4923635;28;45311;-53
2021/09/26 04:03:53;;;;;;;;;17.75;16.00;;;;;19.70;69.85;101075.44;4924317;28;45375;-53
2021/09/26 04:06:18;;;;;;;;;17.25;16.00;;;;;19.71;69.68;101066.44;4924078;28;45921;-55
2021/09/26 04:08:44;;;;;;;;;16.75;15.50;;;;;19.69;69.90;101063.06;4923816;28;45413;-50
2021/09/26 04:11:09;;;;;;;;;16.50;14.75;;;;;19.70;70.30;101063.91;4924159;28;45242;-53
2021/09/26 04:13:36;;;;;;;;;13.75;12.00;;;;;19.70;70.29;101055.88;4924047;28;45186;-51
2021/09/26 04:16:02;;;;;;;;;16.25;16.25;;;;;19.67;70.21;101062.38;4923801;28;45371;-52
2021/09/26 04:18:27;;;;;;;;;19.25;16.25;;;;;19.65;70.04;101061.63;4923828;28;45396;-50
2021/09/26 04:20:54;;;;;;;;;16.00;13.00;;;;;19.64;69.89;101062.63;4924085;28;45304;-52
2021/09/26 04:23:20;;;;;;;;;16.00;16.00;;;;;19.62;69.89;101058.41;4923824;28;45455;-56
2021/09/26 04:25:45;;;;;;;;;18.00;18.00;;;;;19.59;69.74;101058.69;4923690;28;45567;-54
2021/09/26 04:28:11;;;;;;;;;16.00;16.00;;;;;19.56;70.07;101053.59;4923935;28;45256;-61
2021/09/26 04:30:37;;;;;;;;;16.00;15.25;;;;;19.52;70.09;101053.91;4923730;28;45444;-55
2021/09/26 04:33:04;;;;;;;;;16.00;15.00;;;;;19.49;70.26;101051.50;4924011;28;45361;-54
2021/09/26 04:35:29;;;;;;;;;14.75;13.75;;;;;19.49;70.41;101054.16;4923253;28;45388;-55
2021/09/26 04:37:57;;;;;;;;;14.50;13.50;;;;;19.49;70.20;101054.16;4923375;28;45310;-54
2021/09/26 04:40:23;;;;;;;;;17.50;14.00;;;;;19.50;70.11;101055.84;4923698;28;45371;-55
2021/09/26 04:42:49;;;;;;;;;20.00;16.00;;;;;19.50;70.21;101045.16;4923647;28;45295;-55
2021/09/26 04:45:15;;;;;;;;;15.25;14.00;;;;;19.51;70.19;101046.00;4923456;28;46192;-55
2021/09/26 04:47:40;;;;;;;;;16.50;14.75;;;;;19.50;70.72;101049.66;4923531;28;45446;-55
2021/09/26 04:50:07;;;;;;;;;14.50;13.75;;;;;19.49;70.43;101047.97;4923555;28;45254;-55
2021/09/26 04:52:34;;;;;;;;;15.00;14.50;;;;;19.48;70.64;101049.81;4923401;28;45702;-54
2021/09/26 04:55:00;;;;;;;;;21.25;16.25;;;;;19.46;70.28;101051.78;4923274;28;45274;-54
2021/09/26 04:57:25;;;;;;;;;17.00;15.75;;;;;19.45;70.38;101052.78;4923306;28;45252;-55
2021/09/26 04:59:51;;;;;;;;;18.25;15.25;;;;;19.45;70.25;101055.44;4923201;28;45325;-54
2021/09/26 05:02:17;;;;;;;;;19.75;16.75;;;;;19.43;70.25;101051.19;4923314;28;45479;-52
2021/09/26 05:04:42;;;;;;;;;19.00;15.50;;;;;19.42;70.87;101054.84;4923095;28;46010;-51
2021/09/26 05:07:08;;;;;;;;;17.25;14.25;;;;;19.41;70.57;101061.19;4923565;28;45331;-52
2021/09/26 05:09:33;;;;;;;;;16.25;16.25;;;;;19.39;70.87;101057.81;4923142;28;45312;-56
2021/09/26 05:11:59;;;;;;;;;15.25;13.50;;;;;19.40;70.45;101067.53;4923213;28;45372;-54
2021/09/26 05:14:24;;;;;;;;;19.50;15.75;;;;;19.38;70.58;101073.00;4922869;28;45362;-54
2021/09/26 05:16:50;;;;;;;;;17.50;16.50;;;;;19.36;70.79;101079.50;4923320;28;45327;-55
2021/09/26 05:19:16;;;;;;;;;18.50;15.25;;;;;19.35;71.20;101089.31;4923092;28;45334;-54
2021/09/26 05:21:42;;;;;;;;;16.75;14.75;;;;;19.34;71.14;101076.09;4923177;28;45467;-55
2021/09/26 05:24:07;;;;;;;;;16.75;13.50;;;;;19.33;70.78;101085.94;4922806;28;46112;-54
2021/09/26 05:26:33;;;;;;;;;15.75;15.00;;;;;19.32;71.08;101088.75;4922952;28;45341;-55
2021/09/26 05:28:58;;;;;;;;;26.00;20.25;;;;;19.29;71.04;101092.56;4923149;28;45298;-55
2021/09/26 05:31:24;;;;;;;;;19.00;17.00;;;;;19.29;71.68;101102.41;4922990;28;45343;-52
2021/09/26 05:33:49;;;;;;;;;17.00;17.00;;;;;19.30;71.66;101106.75;4922800;28;45942;-55
2021/09/26 05:36:15;;;;;;;;;17.75;14.75;;;;;19.30;71.80;101106.75;4922971;28;45238;-55
2021/09/26 05:38:40;;;;;;;;;18.25;18.00;;;;;19.32;71.34;101107.44;4922778;28;45592;-54
2021/09/26 05:41:06;;;;;;;;;17.00;16.75;;;;;19.33;71.34;101112.66;4923191;28;45424;-55
2021/09/26 05:43:31;;;;;;;;;16.00;15.25;;;;;19.37;71.56;101122.09;4922697;28;45456;-56
2021/09/26 05:45:57;;;;;;;;;17.50;15.50;;;;;19.38;71.56;101117.59;4922965;28;45222;-56
2021/09/26 05:48:22;;;;;;;;;17.00;17.00;;;;;19.39;71.78;101113.94;4925183;28;45351;-54
2021/09/26 05:50:48;;;;;;;;;20.25;16.75;;;;;19.40;71.13;101123.63;4926511;28;45380;-52
2021/09/26 05:53:13;;;;;;;;;20.25;18.00;;;;;19.39;71.80;101119.28;4925673;28;46219;-53
2021/09/26 05:55:39;;;;;;;;;19.75;17.75;;;;;19.40;71.49;101128.97;4926079;28;45325;-53
2021/09/26 05:58:04;;;;;;;;;16.75;15.25;;;;;19.40;71.24;101129.81;4926104;28;45578;-55
2021/09/26 06:00:30;;;;;;;;;15.75;15.00;;;;;19.42;71.24;101135.00;4926129;28;45265;-55
2021/09/26 06:02:55;;;;;;;;;18.00;14.50;;;;;19.44;71.36;101135.75;4925661;28;45316;-56
2021/09/26 06:05:22;;;;;;;;;19.00;16.75;;;;;19.45;71.35;101148.13;4925926;28;45393;-55
2021/09/26 06:07:48;;;;;;;;;18.50;17.50;;;;;19.44;71.60;101154.44;4925813;28;45381;-56
2021/09/26 06:10:13;;;;;;;;;18.00;15.25;;;;;19.45;71.50;101153.47;4925738;28;45394;-54
2021/09/26 06:12:39;;;;;;;;;16.50;15.75;;;;;19.43;71.63;101160.75;4925694;28;45324;-55
2021/09/26 06:15:06;;;;;;;;;23.75;19.00;;;;;19.43;71.63;101158.94;4925826;28;45176;-54
2021/09/26 06:17:32;;;;;;;;;20.50;16.50;;;;;19.44;71.89;101154.44;4925798;28;45250;-53
2021/09/26 06:19:59;;;;;;;;;18.75;16.75;;;;;19.43;72.17;101156.28;4925694;28;45275;-54
2021/09/26 06:22:25;;;;;;;;;19.75;17.75;;;;;19.44;71.92;101157.97;4925403;28;46234;-51
2021/09/26 06:24:52;;;;;;;;;19.75;17.00;;;;;19.43;71.89;101166.09;4925666;28;45312;-54
2021/09/26 06:27:18;;;;;;;;;19.50;18.00;;;;;19.44;71.97;101170.47;4925513;28;45273;-53
2021/09/26 06:29:44;;;;;;;;;16.50;14.75;;;;;19.45;71.77;101178.34;4925436;28;45282;-53
2021/09/26 06:32:09;;;;;;;;;21.50;15.50;;;;;19.45;71.96;101175.69;4925384;28;45226;-53
2021/09/26 06:34:36;;;;;;;;;18.50;16.00;;;;;19.44;71.86;101165.13;4925681;28;45257;-55
2021/09/26 06:37:02;;;;;;;;;17.50;16.00;;;;;19.47;71.61;101173.69;4925559;28;45247;-54
2021/09/26 06:39:28;;;;;;;;;17.50;16.25;;;;;19.48;71.56;101177.22;4925341;28;45312;-55
2021/09/26 06:41:53;;;;;;;;;16.50;15.50;;;;;19.46;71.79;101181.88;4925004;28;45169;-54
2021/09/26 06:44:19;;;;;;;;;14.75;14.00;;;;;19.45;72.10;101186.38;4925614;28;45557;-55
2021/09/26 06:46:44;;;;;;;;;14.50;12.75;;;;;19.43;71.50;101193.69;4925292;28;45315;-52
2021/09/26 06:49:11;;;;;;;;;15.00;14.00;;;;;19.40;71.77;101195.75;4925371;28;45288;-53
2021/09/26 06:51:36;;;;;;;;;14.75;10.50;;;;;19.39;72.14;101191.41;4925058;28;45499;-55
2021/09/26 06:54:02;;;;;;;;;17.50;14.50;;;;;19.39;72.28;101194.06;4925111;28;45331;-55
2021/09/26 06:56:28;;;;;;;;;16.00;15.25;;;;;19.40;72.27;101193.09;4925353;28;45299;-55
2021/09/26 06:58:53;;;;;;;;;20.00;16.25;;;;;19.41;72.41;101195.63;4925141;28;45606;-56
2021/09/26 07:01:18;;;;;;;;;17.50;14.75;;;;;19.44;72.04;101197.19;4924457;28;45336;-56
2021/09/26 07:03:44;;;;;;;;;18.50;15.00;;;;;19.45;72.25;101197.06;4925191;28;45268;-55
2021/09/26 07:06:09;;;;;;;;;17.50;15.75;;;;;19.43;72.19;101193.69;4925471;28;45259;-56
2021/09/26 07:08:36;;;;;;;;;17.00;16.00;;;;;19.43;72.06;101196.34;4907782;28;45262;-55
2021/09/26 07:11:02;;;;;;;;;18.25;15.25;;;;;19.43;71.95;101196.34;4924911;28;46502;-55
2021/09/26 07:13:27;;;;;;;;;14.75;14.50;;;;;19.43;71.87;101204.38;4924838;28;45238;-59
2021/09/26 07:15:53;;;;;;;;;17.25;15.25;;;;;19.46;71.86;101208.59;4924795;28;45241;-56
2021/09/26 07:18:18;;;;;;;;;19.25;13.25;;;;;19.45;71.83;101210.41;4924913;28;45392;-55
2021/09/26 07:20:44;;;;;;;;;18.75;15.50;;;;;19.50;72.17;101210.81;4924462;28;45412;-55
2021/09/26 07:23:09;;;;;;;;;14.25;13.50;;;;;19.53;71.75;101210.56;4924709;28;45400;-55
2021/09/26 07:25:35;;;;;;;;;16.00;13.25;;;;;19.56;71.65;101217.47;4924832;28;45321;-51
2021/09/26 07:28:01;;;;;;;;;18.50;16.50;;;;;19.58;71.73;101212.00;4924886;28;45283;-54
2021/09/26 07:30:26;;;;;;;;;17.75;13.75;;;;;19.63;71.62;101220.47;4924233;28;45740;-55
2021/09/26 07:32:52;;;;;;;;;14.75;13.25;;;;;19.66;72.24;101217.50;4924768;28;45384;-54
2021/09/26 07:35:17;;;;;;;;;16.25;15.75;;;;;19.67;72.01;101219.19;4924637;28;45336;-55
2021/09/26 07:37:43;;;;;;;;;16.50;13.50;;;;;19.71;71.81;101229.47;4923238;28;45319;-54
2021/09/26 07:40:09;;;;;;;;;23.25;16.00;;;;;19.74;71.50;101229.19;4924344;28;46003;-56
2021/09/26 07:42:35;;;;;;;;;15.25;13.25;;;;;19.75;71.53;101228.22;4924547;28;45157;-56
2021/09/26 07:45:03;;;;;;;;;16.25;13.00;;;;;19.76;71.57;101229.91;4924332;28;45245;-54
2021/09/26 07:47:30;;;;;;;;;16.25;15.00;;;;;19.80;71.32;101239.34;4924618;28;45221;-55
2021/09/26 07:49:56;;;;;;;;;16.50;16.25;;;;;19.86;71.18;101240.63;4924257;28;46112;-56
2021/09/26 07:52:23;;;;;;;;;15.50;14.50;;;;;19.88;71.37;101237.81;4924133;28;45333;-56
2021/09/26 07:54:48;;;;;;;;;19.25;17.75;;;;;19.89;71.21;101242.16;4924625;28;45245;-55
2021/09/26 07:57:15;;;;;;;;;16.00;15.00;;;;;19.91;70.90;101245.56;4924323;28;45313;-53
2021/09/26 07:59:41;;;;;;;;;18.50;16.00;;;;;19.93;71.05;101254.28;4923973;28;45362;-55
2021/09/26 08:02:07;;;;;;;;;15.00;14.00;;;;;19.94;70.92;101255.97;4923594;28;45483;-54
2021/09/26 08:04:33;;;;;;;;;14.00;12.50;;;;;19.95;70.89;101261.19;4924124;28;45161;-55
2021/09/26 08:06:58;;;;;;;;;17.75;16.00;;;;;19.94;70.88;101255.97;4924269;28;45419;-54
2021/09/26 08:09:24;;;;;;;;;19.50;14.50;;;;;19.95;71.00;101258.50;4923173;28;45313;-54
2021/09/26 08:11:49;;;;;;;;;15.75;13.75;;;;;19.98;70.95;101260.88;4923643;28;45416;-54
2021/09/26 08:14:15;;;;;;;;;23.00;18.00;;;;;20.03;71.05;101268.50;4924028;28;45353;-55
2021/09/26 08:16:41;;;;;;;;;19.25;16.00;;;;;20.05;70.94;101267.38;4924119;28;45367;-54
2021/09/26 08:19:06;;;;;;;;;18.75;15.00;;;;;20.08;70.62;101268.94;4923962;28;45338;-55
2021/09/26 08:21:32;;;;;;;;;14.00;14.00;;;;;20.11;70.73;101271.31;4923859;28;45350;-55
2021/09/26 08:23:57;;;;;;;;;16.75;15.25;;;;;20.15;70.64;101275.44;4923770;28;45312;-55
2021/09/26 08:26:23;;;;;;;;;16.75;15.25;;;;;20.19;70.79;101267.94;4924125;28;45483;-54
2021/09/26 08:28:49;;;;;;;;;17.50;13.75;;;;;20.24;70.35;101266.56;4923637;28;45383;-55
2021/09/26 08:31:14;;;;;;;;;15.25;14.50;;;;;20.32;70.61;101264.03;4923890;28;45258;-54
2021/09/26 08:33:40;;;;;;;;;19.25;15.75;;;;;20.46;70.53;101260.13;4923894;28;45216;-56
2021/09/26 08:36:05;;;;;;;;;14.75;14.00;;;;;20.58;69.63;101266.13;4923973;28;45427;-55
2021/09/26 08:38:31;;;;;;;;;15.25;15.25;;;;;20.74;69.84;101263.72;4923240;28;45882;-54
2021/09/26 08:40:57;;;;;;;;;16.75;16.00;;;;;20.91;69.00;101273.69;4923313;28;45237;-56
2021/09/26 08:43:22;;;;;;;;;16.25;15.50;;;;;21.00;69.04;101268.44;4923576;28;45518;-56
2021/09/26 08:45:49;;;;;;;;;17.25;14.00;;;;;21.03;68.74;101274.38;4923379;28;45428;-54
2021/09/26 08:48:14;;;;;;;;;15.50;14.00;;;;;21.06;68.64;101270.53;4923255;28;46554;-55
2021/09/26 08:50:43;;;;;;;;;14.25;14.25;;;;;21.09;68.32;101270.25;4923473;28;45421;-55
2021/09/26 08:53:08;;;;;;;;;15.25;14.00;;;;;21.11;68.02;101274.47;4923257;28;45765;-54
2021/09/26 08:55:35;;;;;;;;;15.50;15.00;;;;;21.14;67.70;101276.00;4923706;28;45309;-56
2021/09/26 08:58:01;;;;;;;;;15.00;14.25;;;;;21.13;68.08;101271.66;4922991;28;45337;-54
2021/09/26 09:00:27;;;;;;;;;13.50;13.25;;;;;21.12;67.75;101275.31;4905777;28;45197;-54
2021/09/26 09:02:54;;;;;;;;;19.75;14.75;;;;;21.15;67.62;101275.03;4923171;28;45394;-54
2021/09/26 09:05:30;;;;;;;;;14.50;14.50;;;;;21.22;67.63;101272.59;4923431;28;45584;-56
2021/09/26 09:08:05;;;;;;;;;19.25;17.50;;;;;21.32;67.50;101273.44;4922814;28;46315;-54
2021/09/26 09:10:48;;;;;;;;;14.75;12.00;;;;;21.41;67.08;101278.78;4923011;28;45378;-55
2021/09/26 09:13:19;;;;;;;;;17.50;14.00;;;;;21.49;66.83;101279.84;4923081;28;45181;-55
2021/09/26 09:15:55;;;;;;;;;16.25;14.00;;;;;21.57;66.78;101275.47;4922955;28;45449;-55
2021/09/26 09:18:21;;;;;;;;;14.75;13.00;;;;;21.65;66.23;101278.22;4922970;28;46067;-55
2021/09/26 09:20:48;;;;;;;;;14.50;13.75;;;;;21.69;65.88;101270.72;4922970;28;45443;-54
2021/09/26 09:23:18;;;;;;;;;14.75;11.75;;;;;21.72;66.05;101268.59;4925149;28;45249;-55
2021/09/26 09:25:48;;;;;;;;;18.25;15.75;;;;;21.83;65.79;101269.38;4926558;28;45264;-56
2021/09/26 09:28:20;;;;;;;;;16.00;13.75;;;;;21.94;65.73;101267.31;4926245;28;45312;-56
2021/09/26 09:30:49;;;;;;;;;14.50;12.50;;;;;22.06;65.14;101261.72;4926069;28;45313;-54
2021/09/26 09:33:16;;;;;;;;;12.75;12.00;;;;;22.15;64.70;101255.47;4926499;28;45348;-54
2021/09/26 09:35:45;;;;;;;;;19.25;14.00;;;;;22.24;64.90;101251.88;4926229;28;45431;-55
2021/09/26 09:38:14;;;;;;;;;14.75;12.00;;;;;22.31;64.56;101255.63;4925888;28;45346;-55
2021/09/26 09:40:40;;;;;;;;;12.00;10.75;;;;;22.29;64.40;101263.84;4925963;28;45404;-56
2021/09/26 09:43:06;;;;;;;;;12.25;11.50;;;;;22.37;64.08;101275.66;4926544;28;45316;-53
2021/09/26 09:45:38;;;;;;;;;13.00;11.25;;;;;22.44;63.96;101271.34;4926100;28;45260;-56
2021/09/26 09:48:07;;;;;;;;;19.00;17.75;;;;;22.49;64.03;101264.50;4926200;28;46319;-56
2021/09/26 09:50:55;;;;;;;;;14.75;13.75;;;;;22.55;63.92;101266.56;4925971;28;45278;-54
2021/09/26 09:53:36;;;;;;;;;12.00;11.00;;;;;22.57;62.80;101261.03;4925384;28;45222;-53
2021/09/26 09:56:15;;;;;;;;;16.75;16.75;;;;;22.55;62.71;101261.19;4925934;28;45539;-52
2021/09/26 09:58:42;;;;;;;;;13.75;13.00;;;;;22.51;63.10;101257.16;4925828;28;46198;-56
2021/09/26 10:01:13;;;;;;;;;13.00;10.50;;;;;22.53;63.02;101262.34;4925529;28;45250;-56
2021/09/26 10:04:07;;;;;;;;;10.50;9.50;;;;;22.55;63.27;101261.19;4925939;28;45275;-54
2021/09/26 10:06:42;;;;;;;;;14.50;13.00;;;;;22.58;62.91;101263.56;4924899;28;45276;-56
2021/09/26 10:09:24;;;;;;;;;12.50;9.50;;;;;22.53;62.32;101256.97;4925367;28;45281;-53
2021/09/26 10:11:59;;;;;;;;;8.00;7.00;;;;;22.43;62.63;101265.09;4925970;28;45372;-55
2021/09/26 10:14:27;;;;;;;;;14.00;10.75;;;;;22.37;62.46;101271.13;4925690;28;45412;-53
2021/09/26 10:16:55;;;;;;;;;12.75;10.25;;;;;22.35;62.65;101270.41;4925738;28;45504;-55
2021/09/26 10:19:22;;;;;;;;;13.00;10.75;;;;;22.33;62.77;101271.56;4925258;28;45349;-54
2021/09/26 10:21:53;;;;;;;;;15.00;10.50;;;;;22.33;62.69;101269.72;4925444;28;45226;-55
2021/09/26 10:24:23;;;;;;;;;13.00;11.00;;;;;22.33;62.94;101274.25;4925519;28;45495;-55
2021/09/26 10:26:51;;;;;;;;;14.50;10.25;;;;;22.29;62.83;101279.09;4925530;28;45416;-53
2021/09/26 10:29:19;;;;;;;;;14.00;10.50;;;;;22.26;62.75;101272.19;4925091;28;45395;-55
2021/09/26 10:31:47;;;;;;;;;12.50;12.00;;;;;22.25;62.89;101272.34;4925234;28;45184;-54
2021/09/26 10:34:13;;;;;;;;;12.75;11.25;;;;;22.25;63.35;101270.50;4925200;28;45161;-53
2021/09/26 10:36:41;;;;;;;;;12.50;9.50;;;;;22.28;63.41;101269.38;4925264;28;45246;-54
2021/09/26 10:39:08;;;;;;;;;16.50;12.00;;;;;22.28;62.91;101267.53;4924938;28;46302;-55
2021/09/26 10:41:34;;;;;;;;;29.75;20.75;;;;;22.27;62.68;101265.81;4925028;28;45306;-53
2021/09/26 10:44:26;;;;;;;;;8.75;8.00;;;;;22.32;62.71;101267.19;4925495;28;45256;-55
2021/09/26 10:47:07;;;;;;;;;10.00;9.75;;;;;22.34;62.98;101267.88;4925343;28;45263;-55
2021/09/26 10:49:41;;;;;;;;;12.00;10.00;;;;;22.41;62.85;101266.28;4924993;28;45392;-55
2021/09/26 10:52:32;;;;;;;;;11.25;9.50;;;;;22.50;62.42;101268.00;4925221;28;45272;-55
2021/09/26 10:55:15;;;;;;;;;12.50;10.00;;;;;22.56;62.52;101267.41;4925274;28;45260;-55
2021/09/26 10:57:46;;;;;;;;;9.75;9.25;;;;;22.61;61.79;101267.78;4925238;28;45300;-53
2021/09/26 11:00:29;;;;;;;;;12.50;8.75;;;;;22.60;61.32;101270.63;4924857;28;45212;-54
2021/09/26 11:02:55;;;;;;;;;16.75;10.00;;;;;22.58;61.70;101266.22;4924794;28;45177;-54
2021/09/26 11:05:33;;;;;;;;;12.25;10.00;;;;;22.55;61.58;101263.88;4925132;28;45245;-53
2021/09/26 11:08:01;;;;;;;;;9.75;8.50;;;;;22.56;61.83;101257.50;4924701;28;45246;-54
2021/09/26 11:11:10;;;;;;;;;11.75;9.00;;;;;22.62;61.53;101250.66;4924812;28;45383;-54
2021/09/26 11:13:38;;;;;;;;;10.25;10.25;;;;;22.69;61.91;101249.03;4873924;29;45554;-55
2021/09/26 11:16:03;;;;;;;;;15.00;13.00;;;;;22.75;61.39;101252.91;4921936;28;45341;-52